Time;durP1;ratioP1;P1;durP2;ratioP2;P2;SDS_P1;SDS_P2;PMS_P1;PMS_P2;Temp;Humidity;BMP_temperature;BMP_pressure;BME280_temperature;BME280_humidity;BME280_pressure;Samples;Min_cycle;Max_cycle;Signal;HPM_P1;HPM_P2
2022/09/11 00:01:23;;;;;;;;;;;;;;;;;;5038724;28;1330;-77
2022/09/11 00:03:49;;;;;;;;;;;;;;;;;;5040010;28;1957;-77
2022/09/11 00:06:15;;;;;;;;;;;;;;;;;;5039017;28;1573;-76
2022/09/11 00:08:41;;;;;;;;;;;;;;;;;;5038788;28;1227;-76
2022/09/11 00:11:17;;;;;;;;;;;;;;;;;;5039874;28;1331;-75
2022/09/11 00:13:43;;;;;;;;;;;;;;;;;;5037981;28;1523;-75
2022/09/11 00:16:20;;;;;;;;;;;;;;;;;;5038406;28;1323;-74
2022/09/11 00:18:45;;;;;;;;;;;;;;;;;;5038655;28;1310;-73
2022/09/11 00:21:11;;;;;;;;;;;;;;;;;;5039580;28;1533;-74
2022/09/11 00:23:36;;;;;;;;;;;;;;;;;;5037713;28;1957;-73
2022/09/11 00:26:02;;;;;;;;;;;;;;;;;;5039042;28;1267;-73
2022/09/11 00:28:27;;;;;;;;;;;;;;;;;;5038855;28;1534;-76
2022/09/11 00:30:59;;;;;;;;;;;;;;;;;;5038858;28;1326;-77
2022/09/11 00:33:26;;;;;;;;;;;;;;;;;;5037895;28;1318;-77
2022/09/11 00:36:02;;;;;;;;;;;;;;;;;;5038787;28;1339;-75
2022/09/11 00:38:28;;;;;;;;;;;;;;;;;;5039572;28;1414;-77
2022/09/11 00:40:57;;;;;;;;;;;;;;;;;;5038771;28;1327;-75
2022/09/11 00:43:22;;;;;;;;;;;;;;;;;;5033259;28;1898;-75
2022/09/11 00:45:51;;;;;;;;;;;;;;;;;;5037765;28;1540;-75
2022/09/11 00:48:19;;;;;;;;;;;;;;;;;;5039620;28;1207;-76
2022/09/11 00:50:44;;;;;;;;;;;;;;;;;;5039323;28;1275;-75
2022/09/11 00:53:10;;;;;;;;;;;;;;;;;;5039786;28;1282;-76
2022/09/11 00:55:36;;;;;;;;;;;;;;;;;;5037959;28;1292;-77
2022/09/11 00:58:14;;;;;;;;;;;;;;;;;;5038672;28;1371;-77
2022/09/11 01:00:41;;;;;;;;;;;;;;;;;;5038088;28;1272;-75
2022/09/11 01:03:06;;;;;;;;;;;;;;;;;;5042460;28;1894;-75
2022/09/11 01:05:33;;;;;;;;;;;;;;;;;;5041039;28;1381;-75
2022/09/11 01:07:58;;;;;;;;;;;;;;;;;;5042550;28;1275;-75
2022/09/11 01:10:31;;;;;;;;;;;;;;;;;;5040511;28;1354;-74
2022/09/11 01:13:05;;;;;;;;;;;;;;;;;;5040682;28;1308;-74
2022/09/11 01:15:41;;;;;;;;;;;;;;;;;;5038289;28;1533;-75
2022/09/11 01:18:28;;;;;;;;;;;;;;;;;;5042429;28;1303;-74
2022/09/11 01:21:12;;;;;;;;;;;;;;;;;;5041508;28;1244;-75
2022/09/11 01:23:42;;;;;;;;;;;;;;;;;;5042282;28;1894;-75
2022/09/11 01:26:10;;;;;;;;;;;;;;;;;;5041288;28;1377;-75
2022/09/11 01:28:38;;;;;;;;;;;;;;;;;;5041928;28;1261;-74
2022/09/11 01:31:09;;;;;;;;;;;;;;;;;;5041118;28;1294;-74
2022/09/11 01:33:41;;;;;;;;;;;;;;;;;;5041206;28;1196;-74
2022/09/11 01:36:06;;;;;;;;;;;;;;;;;;5040324;28;1341;-74
2022/09/11 01:38:31;;;;;;;;;;;;;;;;;;5042151;28;1299;-75
2022/09/11 01:41:16;;;;;;;;;;;;;;;;;;5041349;28;1396;-75
2022/09/11 01:43:44;;;;;;;;;;;;;;;;;;5040050;28;1893;-75
2022/09/11 01:46:12;;;;;;;;;;;;;;;;;;5040771;28;1428;-74
2022/09/11 01:48:47;;;;;;;;;;;;;;;;;;5041529;28;1376;-75
2022/09/11 01:51:16;;;;;;;;;;;;;;;;;;5042122;28;1284;-75
2022/09/11 01:53:43;;;;;;;;;;;;;;;;;;5042307;28;1282;-75
2022/09/11 01:56:10;;;;;;;;;;;;;;;;;;5039900;28;1513;-74
2022/09/11 01:58:35;;;;;;;;;;;;;;;;;;5042136;28;1266;-75
2022/09/11 02:01:10;;;;;;;;;;;;;;;;;;5039484;28;1323;-75
2022/09/11 02:03:41;;;;;;;;;;;;;;;;;;5041998;28;1898;-75
2022/09/11 02:06:23;;;;;;;;;;;;;;;;;;5040021;28;1318;-75
2022/09/11 02:08:50;;;;;;;;;;;;;;;;;;5041770;28;1235;-75
2022/09/11 02:11:16;;;;;;;;;;;;;;;;;;5040273;28;1410;-75
2022/09/11 02:13:50;;;;;;;;;;;;;;;;;;5038455;28;1263;-75
2022/09/11 02:16:15;;;;;;;;;;;;;;;;;;5038005;28;1327;-74
2022/09/11 02:18:44;;;;;;;;;;;;;;;;;;5041564;28;1238;-75
2022/09/11 02:21:09;;;;;;;;;;;;;;;;;;5041680;28;1270;-75
2022/09/11 02:23:34;;;;;;;;;;;;;;;;;;5040126;28;1897;-75
2022/09/11 02:25:59;;;;;;;;;;;;;;;;;;5040025;28;1479;-75
2022/09/11 02:28:25;;;;;;;;;;;;;;;;;;5041139;28;1263;-75
2022/09/11 02:30:50;;;;;;;;;;;;;;;;;;5040697;28;1349;-76
2022/09/11 02:33:31;;;;;;;;;;;;;;;;;;5041499;28;1107;-77
2022/09/11 02:36:11;;;;;;;;;;;;;;;;;;5040094;28;1283;-76
2022/09/11 02:38:53;;;;;;;;;;;;;;;;;;5040560;28;1424;-76
2022/09/11 02:41:22;;;;;;;;;;;;;;;;;;5040674;28;1280;-76
2022/09/11 02:44:06;;;;;;;;;;;;;;;;;;5041167;28;1894;-77
2022/09/11 02:46:37;;;;;;;;;;;;;;;;;;5039499;28;1350;-76
2022/09/11 02:49:07;;;;;;;;;;;;;;;;;;5040653;28;1418;-76
2022/09/11 02:51:46;;;;;;;;;;;;;;;;;;5040818;28;1331;-77
2022/09/11 02:54:30;;;;;;;;;;;;;;;;;;5038950;28;1299;-77
2022/09/11 02:56:58;;;;;;;;;;;;;;;;;;5040261;28;1590;-74
2022/09/11 02:59:31;;;;;;;;;;;;;;;;;;5038886;28;1264;-72
2022/09/11 03:02:00;;;;;;;;;;;;;;;;;;5040174;28;1961;-74
2022/09/11 03:04:25;;;;;;;;;;;;;;;;;;5039755;28;1252;-73
2022/09/11 03:06:51;;;;;;;;;;;;;;;;;;5039720;28;1259;-75
2022/09/11 03:09:17;;;;;;;;;;;;;;;;;;5040397;28;1207;-75
2022/09/11 03:11:42;;;;;;;;;;;;;;;;;;5039384;28;1348;-75
2022/09/11 03:14:07;;;;;;;;;;;;;;;;;;5040653;28;1471;-75
2022/09/11 03:16:33;;;;;;;;;;;;;;;;;;5038624;28;1318;-75
2022/09/11 03:18:58;;;;;;;;;;;;;;;;;;5040133;28;1329;-75
2022/09/11 03:21:23;;;;;;;;;;;;;;;;;;5040224;28;1270;-75
2022/09/11 03:23:48;;;;;;;;;;;;;;;;;;5040821;28;1898;-75
2022/09/11 03:26:16;;;;;;;;;;;;;;;;;;5037502;28;1389;-75
2022/09/11 03:28:42;;;;;;;;;;;;;;;;;;5040535;28;1291;-75
2022/09/11 03:31:08;;;;;;;;;;;;;;;;;;5038786;28;1251;-75
2022/09/11 03:33:33;;;;;;;;;;;;;;;;;;5040612;28;1199;-74
2022/09/11 03:35:59;;;;;;;;;;;;;;;;;;5039354;28;1299;-75
2022/09/11 03:38:24;;;;;;;;;;;;;;;;;;5040162;28;1282;-76
2022/09/11 03:40:49;;;;;;;;;;;;;;;;;;5039549;28;1327;-76
2022/09/11 03:43:15;;;;;;;;;;;;;;;;;;5037717;28;1890;-74
2022/09/11 03:45:41;;;;;;;;;;;;;;;;;;5035970;28;1429;-74
2022/09/11 03:48:06;;;;;;;;;;;;;;;;;;5037150;28;1254;-75
2022/09/11 03:50:31;;;;;;;;;;;;;;;;;;5036971;28;1258;-75
2022/09/11 03:52:56;;;;;;;;;;;;;;;;;;5031688;28;1352;-75
2022/09/11 03:55:22;;;;;;;;;;;;;;;;;;5039435;28;1159;-74
2022/09/11 03:57:47;;;;;;;;;;;;;;;;;;5039723;28;1309;-75
2022/09/11 04:00:13;;;;;;;;;;;;;;;;;;5040040;28;1250;-75
2022/09/11 04:02:38;;;;;;;;;;;;;;;;;;5037034;28;1949;-78
2022/09/11 04:05:03;;;;;;;;;;;;;;;;;;5039958;28;1096;-76
2022/09/11 04:07:30;;;;;;;;;;;;;;;;;;5039662;28;1389;-77
2022/09/11 04:09:56;;;;;;;;;;;;;;;;;;5040339;28;1325;-76
2022/09/11 04:12:21;;;;;;;;;;;;;;;;;;5040155;28;1346;-75
2022/09/11 04:14:49;;;;;;;;;;;;;;;;;;5038251;28;1332;-76
2022/09/11 04:17:14;;;;;;;;;;;;;;;;;;5035340;28;1384;-76
2022/09/11 04:19:39;;;;;;;;;;;;;;;;;;5040169;28;1293;-76
2022/09/11 04:22:04;;;;;;;;;;;;;;;;;;5039678;28;1953;-75
2022/09/11 04:24:30;;;;;;;;;;;;;;;;;;5039058;28;1294;-78
2022/09/11 04:26:55;;;;;;;;;;;;;;;;;;5039762;28;1335;-74
2022/09/11 04:29:21;;;;;;;;;;;;;;;;;;5035110;28;1131;-75
2022/09/11 04:31:46;;;;;;;;;;;;;;;;;;5036508;28;1479;-74
2022/09/11 04:34:11;;;;;;;;;;;;;;;;;;5031387;28;1191;-74
2022/09/11 04:36:36;;;;;;;;;;;;;;;;;;5033345;28;1377;-75
2022/09/11 04:39:02;;;;;;;;;;;;;;;;;;5035517;28;1216;-74
2022/09/11 04:41:27;;;;;;;;;;;;;;;;;;5043030;28;1235;-75
2022/09/11 04:43:53;;;;;;;;;;;;;;;;;;5037854;28;1906;-74
2022/09/11 04:46:18;;;;;;;;;;;;;;;;;;5041664;28;1247;-74
2022/09/11 04:48:54;;;;;;;;;;;;;;;;;;5041608;28;1239;-75
2022/09/11 04:51:29;;;;;;;;;;;;;;;;;;5042628;28;1453;-75
2022/09/11 04:53:56;;;;;;;;;;;;;;;;;;5043052;28;1318;-75
2022/09/11 04:56:21;;;;;;;;;;;;;;;;;;5041848;28;1277;-75
2022/09/11 04:58:52;;;;;;;;;;;;;;;;;;5043084;28;1306;-74
2022/09/11 05:01:17;;;;;;;;;;;;;;;;;;5039222;28;1341;-74
2022/09/11 05:03:43;;;;;;;;;;;;;;;;;;5042445;28;1959;-75
2022/09/11 05:06:09;;;;;;;;;;;;;;;;;;5042098;28;1498;-76
2022/09/11 05:08:35;;;;;;;;;;;;;;;;;;5042861;28;1369;-74
2022/09/11 05:11:01;;;;;;;;;;;;;;;;;;5040134;28;1179;-74
2022/09/11 05:13:26;;;;;;;;;;;;;;;;;;5042049;28;1215;-74
2022/09/11 05:15:52;;;;;;;;;;;;;;;;;;5039997;28;1600;-74
2022/09/11 05:18:17;;;;;;;;;;;;;;;;;;5042851;28;1267;-74
2022/09/11 05:20:42;;;;;;;;;;;;;;;;;;5040735;28;1345;-73
2022/09/11 05:23:09;;;;;;;;;;;;;;;;;;5042089;28;1975;-73
2022/09/11 05:25:35;;;;;;;;;;;;;;;;;;5042306;28;1143;-74
2022/09/11 05:28:01;;;;;;;;;;;;;;;;;;5040397;28;1376;-73
2022/09/11 05:30:27;;;;;;;;;;;;;;;;;;5042507;28;1259;-78
2022/09/11 05:32:53;;;;;;;;;;;;;;;;;;5042490;28;1302;-77
2022/09/11 05:35:19;;;;;;;;;;;;;;;;;;5041436;28;1369;-77
2022/09/11 05:37:45;;;;;;;;;;;;;;;;;;5039956;28;1880;-77
2022/09/11 05:40:11;;;;;;;;;;;;;;;;;;5041592;28;1349;-77
2022/09/11 05:42:37;;;;;;;;;;;;;;;;;;5041576;28;1965;-77
2022/09/11 05:45:02;;;;;;;;;;;;;;;;;;5039183;28;1207;-75
2022/09/11 05:47:27;;;;;;;;;;;;;;;;;;5041534;28;1235;-69
2022/09/11 05:49:53;;;;;;;;;;;;;;;;;;5040388;28;1338;-71
2022/09/11 05:52:18;;;;;;;;;;;;;;;;;;5037672;28;1597;-71
2022/09/11 05:54:43;;;;;;;;;;;;;;;;;;5039509;28;1302;-71
2022/09/11 05:57:08;;;;;;;;;;;;;;;;;;5041372;28;1654;-71
2022/09/11 05:59:33;;;;;;;;;;;;;;;;;;5042177;28;1211;-73
2022/09/11 06:01:58;;;;;;;;;;;;;;;;;;5041778;28;1961;-72
2022/09/11 06:04:24;;;;;;;;;;;;;;;;;;5041134;28;1255;-74
2022/09/11 06:06:49;;;;;;;;;;;;;;;;;;5037162;28;1370;-73
2022/09/11 06:09:14;;;;;;;;;;;;;;;;;;5041710;28;1326;-73
2022/09/11 06:11:39;;;;;;;;;;;;;;;;;;5040540;28;1171;-72
2022/09/11 06:14:04;;;;;;;;;;;;;;;;;;5041237;28;1088;-73
2022/09/11 06:16:30;;;;;;;;;;;;;;;;;;5041358;28;1357;-73
2022/09/11 06:18:56;;;;;;;;;;;;;;;;;;5039061;28;1276;-73
2022/09/11 06:21:22;;;;;;;;;;;;;;;;;;5039095;28;1353;-74
2022/09/11 06:23:48;;;;;;;;;;;;;;;;;;5039507;28;1893;-73
2022/09/11 06:26:14;;;;;;;;;;;;;;;;;;5037369;28;1259;-73
2022/09/11 06:28:40;;;;;;;;;;;;;;;;;;5037632;28;1327;-72
2022/09/11 06:31:10;;;;;;;;;;;;;;;;;;5033949;28;1072;-73
2022/09/11 06:33:36;;;;;;;;;;;;;;;;;;5037474;28;1299;-73
2022/09/11 06:36:03;;;;;;;;;;;;;;;;;;5039951;28;2160;-74
2022/09/11 06:38:28;;;;;;;;;;;;;;;;;;5041159;28;1185;-72
2022/09/11 06:40:54;;;;;;;;;;;;;;;;;;5041414;28;1325;-74
2022/09/11 06:43:19;;;;;;;;;;;;;;;;;;5041276;28;1965;-73
2022/09/11 06:45:47;;;;;;;;;;;;;;;;;;5039927;28;1369;-74
2022/09/11 06:48:12;;;;;;;;;;;;;;;;;;5041662;28;1317;-74
2022/09/11 06:50:40;;;;;;;;;;;;;;;;;;5040973;28;1356;-73
2022/09/11 06:53:06;;;;;;;;;;;;;;;;;;5040629;28;1411;-73
2022/09/11 06:55:32;;;;;;;;;;;;;;;;;;5039991;28;1769;-74
2022/09/11 06:57:57;;;;;;;;;;;;;;;;;;5040873;28;1328;-74
2022/09/11 07:00:22;;;;;;;;;;;;;;;;;;5039651;28;1311;-72
2022/09/11 07:02:47;;;;;;;;;;;;;;;;;;5039872;28;1957;-72
2022/09/11 07:05:13;;;;;;;;;;;;;;;;;;5039906;28;1275;-73
2022/09/11 07:07:38;;;;;;;;;;;;;;;;;;5041083;28;1546;-73
2022/09/11 07:10:04;;;;;;;;;;;;;;;;;;5041512;28;1187;-74
2022/09/11 07:12:29;;;;;;;;;;;;;;;;;;5040872;28;1360;-72
2022/09/11 07:14:55;;;;;;;;;;;;;;;;;;5038340;28;1333;-72
2022/09/11 07:17:20;;;;;;;;;;;;;;;;;;5035900;28;1338;-72
2022/09/11 07:19:45;;;;;;;;;;;;;;;;;;5039832;28;1309;-72
2022/09/11 07:22:10;;;;;;;;;;;;;;;;;;5039633;28;1969;-72
2022/09/11 07:24:35;;;;;;;;;;;;;;;;;;5040026;28;1301;-69
2022/09/11 07:27:00;;;;;;;;;;;;;;;;;;5040332;28;1365;-72
2022/09/11 07:29:26;;;;;;;;;;;;;;;;;;5040416;28;1274;-72
2022/09/11 07:31:51;;;;;;;;;;;;;;;;;;5038025;28;1290;-72
2022/09/11 07:34:16;;;;;;;;;;;;;;;;;;5040548;28;1275;-72
2022/09/11 07:36:41;;;;;;;;;;;;;;;;;;5035806;28;1393;-72
2022/09/11 07:39:07;;;;;;;;;;;;;;;;;;5040404;28;1080;-71
2022/09/11 07:41:32;;;;;;;;;;;;;;;;;;5040805;28;1223;-72
2022/09/11 07:44:02;;;;;;;;;;;;;;;;;;5039929;28;1910;-72
2022/09/11 07:46:29;;;;;;;;;;;;;;;;;;5036264;28;1394;-71
2022/09/11 07:48:55;;;;;;;;;;;;;;;;;;5040505;28;1164;-72
2022/09/11 07:51:20;;;;;;;;;;;;;;;;;;5038835;28;1365;-71
2022/09/11 07:53:46;;;;;;;;;;;;;;;;;;5039618;28;1184;-72
2022/09/11 07:56:13;;;;;;;;;;;;;;;;;;5037067;28;1267;-71
2022/09/11 07:58:39;;;;;;;;;;;;;;;;;;5040128;28;1187;-71
2022/09/11 08:01:05;;;;;;;;;;;;;;;;;;5040191;28;1250;-71
2022/09/11 08:03:31;;;;;;;;;;;;;;;;;;5040073;28;1963;-71
2022/09/11 08:05:57;;;;;;;;;;;;;;;;;;5039099;28;1380;-71
2022/09/11 08:08:22;;;;;;;;;;;;;;;;;;5040012;28;1266;-72
2022/09/11 08:10:47;;;;;;;;;;;;;;;;;;5040006;28;1435;-71
2022/09/11 08:13:13;;;;;;;;;;;;;;;;;;5046493;28;1222;-71
2022/09/11 08:15:44;;;;;;;;;;;;;;;;;;5045968;28;1349;-71
2022/09/11 08:18:09;;;;;;;;;;;;;;;;;;5046650;28;1246;-71
2022/09/11 08:20:34;;;;;;;;;;;;;;;;;;5044923;28;1413;-70
2022/09/11 08:22:59;;;;;;;;;;;;;;;;;;5047849;28;1870;-71
2022/09/11 08:25:27;;;;;;;;;;;;;;;;;;5052618;28;1274;-71
2022/09/11 08:27:52;;;;;;;;;;;;;;;;;;5051586;28;1255;-71
2022/09/11 08:30:17;;;;;;;;;;;;;;;;;;5048609;28;1388;-71
2022/09/11 08:32:42;;;;;;;;;;;;;;;;;;5045118;28;1251;-71
2022/09/11 08:35:08;;;;;;;;;;;;;;;;;;5045646;28;1458;-71
2022/09/11 08:37:33;;;;;;;;;;;;;;;;;;5050162;28;1341;-70
2022/09/11 08:39:59;;;;;;;;;;;;;;;;;;5051165;28;1242;-71
2022/09/11 08:42:26;;;;;;;;;;;;;;;;;;5048870;28;1902;-71
2022/09/11 08:44:53;;;;;;;;;;;;;;;;;;5046406;28;1254;-71
2022/09/11 08:47:24;;;;;;;;;;;;;;;;;;5052533;28;1437;-71
2022/09/11 08:49:56;;;;;;;;;;;;;;;;;;5051009;28;1542;-71
2022/09/11 08:52:21;;;;;;;;;;;;;;;;;;5046414;28;1259;-71
2022/09/11 08:54:46;;;;;;;;;;;;;;;;;;5045336;28;1278;-71
2022/09/11 08:57:17;;;;;;;;;;;;;;;;;;5041160;28;1349;-71
2022/09/11 09:00:08;;;;;;;;;;;;;;;;;;5040822;28;1224;-71
2022/09/11 09:02:53;;;;;;;;;;;;;;;;;;5039096;28;1984;-71
2022/09/11 09:05:34;;;;;;;;;;;;;;;;;;5037328;28;1247;-71
2022/09/11 09:08:00;;;;;;;;;;;;;;;;;;5037645;28;1255;-71
2022/09/11 09:10:28;;;;;;;;;;;;;;;;;;5040683;28;1321;-72
2022/09/11 09:13:14;;;;;;;;;;;;;;;;;;5038851;28;1112;-71
2022/09/11 09:15:39;;;;;;;;;;;;;;;;;;5012808;28;1373;-71
2022/09/11 09:18:10;;;;;;;;;;;;;;;;;;5041806;28;1184;-71
2022/09/11 09:20:44;;;;;;;;;;;;;;;;;;5037983;28;1284;-71
2022/09/11 09:23:17;;;;;;;;;;;;;;;;;;5038757;28;1894;-71
2022/09/11 09:25:42;;;;;;;;;;;;;;;;;;5034950;28;1236;-70
2022/09/11 09:28:16;;;;;;;;;;;;;;;;;;5034419;28;1196;-70
2022/09/11 09:30:50;;;;;;;;;;;;;;;;;;5033693;28;1345;-70
2022/09/11 09:33:30;;;;;;;;;;;;;;;;;;5033792;28;1228;-70
2022/09/11 09:35:56;;;;;;;;;;;;;;;;;;5035662;28;1349;-70
2022/09/11 09:38:25;;;;;;;;;;;;;;;;;;5035753;28;1113;-70
2022/09/11 09:41:03;;;;;;;;;;;;;;;;;;5036938;28;1187;-71
2022/09/11 09:43:33;;;;;;;;;;;;;;;;;;5036595;28;1890;-70
2022/09/11 09:45:58;;;;;;;;;;;;;;;;;;5033318;28;1373;-70
2022/09/11 09:48:23;;;;;;;;;;;;;;;;;;5035397;28;1368;-70
2022/09/11 09:50:49;;;;;;;;;;;;;;;;;;5036400;28;1305;-70
2022/09/11 09:53:26;;;;;;;;;;;;;;;;;;5038727;28;1613;-70
2022/09/11 09:55:52;;;;;;;;;;;;;;;;;;5037272;28;1232;-70
2022/09/11 09:58:17;;;;;;;;;;;;;;;;;;5040998;22;3500;-74
2022/09/11 10:00:42;;;;;;;;;;;;;;;;;;5021214;28;1211;-72
2022/09/11 10:03:17;;;;;;;;;;;;;;;;;;5019854;28;1971;-72
2022/09/11 10:05:43;;;;;;;;;;;;;;;;;;5017644;28;1192;-72
2022/09/11 10:08:24;;;;;;;;;;;;;;;;;;5017372;28;1650;-72
2022/09/11 10:10:55;;;;;;;;;;;;;;;;;;5004768;28;1228;-72
2022/09/11 10:13:23;;;;;;;;;;;;;;;;;;5006861;28;1242;-72
2022/09/11 10:15:49;;;;;;;;;;;;;;;;;;5009384;28;1245;-72
2022/09/11 10:18:34;;;;;;;;;;;;;;;;;;5004521;28;1752;-73
2022/09/11 10:21:11;;;;;;;;;;;;;;;;;;5005435;28;1374;-72
2022/09/11 10:23:43;;;;;;;;;;;;;;;;;;5006941;28;1957;-72
2022/09/11 10:26:13;;;;;;;;;;;;;;;;;;5004736;28;1232;-72
2022/09/11 10:28:38;;;;;;;;;;;;;;;;;;5011109;28;1382;-72
2022/09/11 10:31:04;;;;;;;;;;;;;;;;;;5004386;28;1225;-72
2022/09/11 10:33:29;;;;;;;;;;;;;;;;;;5005701;28;1220;-72
2022/09/11 10:35:54;;;;;;;;;;;;;;;;;;5002758;28;1737;-72
2022/09/11 10:38:28;;;;;;;;;;;;;;;;;;5001784;28;1339;-72
2022/09/11 10:41:20;;;;;;;;;;;;;;;;;;5002458;28;1232;-72
2022/09/11 10:43:46;;;;;;;;;;;;;;;;;;4992933;28;1888;-71
2022/09/11 10:46:17;;;;;;;;;;;;;;;;;;5011549;28;1321;-72
2022/09/11 10:48:42;;;;;;;;;;;;;;;;;;5013274;28;1263;-74
2022/09/11 10:51:10;;;;;;;;;;;;;;;;;;5004686;28;1384;-72
2022/09/11 10:53:49;;;;;;;;;;;;;;;;;;5003593;28;1470;-72
2022/09/11 10:56:14;;;;;;;;;;;;;;;;;;4998564;28;1236;-73
2022/09/11 10:58:40;;;;;;;;;;;;;;;;;;5001151;28;1286;-71
2022/09/11 11:01:05;;;;;;;;;;;;;;;;;;5001611;28;1291;-71
2022/09/11 11:03:31;;;;;;;;;;;;;;;;;;5001947;28;1981;-71
2022/09/11 11:06:15;;;;;;;;;;;;;;;;;;5000597;28;1382;-72
2022/09/11 11:08:58;;;;;;;;;;;;;;;;;;5000900;28;1442;-71
2022/09/11 11:11:31;;;;;;;;;;;;;;;;;;4999447;28;1105;-73
2022/09/11 11:14:03;;;;;;;;;;;;;;;;;;5000365;28;1271;-72
2022/09/11 11:16:38;;;;;;;;;;;;;;;;;;4999892;28;1386;-72
2022/09/11 11:19:03;;;;;;;;;;;;;;;;;;4998997;28;1287;-71
2022/09/11 11:21:46;;;;;;;;;;;;;;;;;;5000888;28;1236;-71
2022/09/11 11:24:31;;;;;;;;;;;;;;;;;;5000850;28;1902;-71
2022/09/11 11:27:14;;;;;;;;;;;;;;;;;;5001771;28;1235;-71
2022/09/11 11:29:46;;;;;;;;;;;;;;;;;;4999808;28;1237;-73
2022/09/11 11:32:26;;;;;;;;;;;;;;;;;;4999360;28;1627;-72
2022/09/11 11:35:09;;;;;;;;;;;;;;;;;;4999359;28;1220;-73
2022/09/11 11:37:41;;;;;;;;;;;;;;;;;;4998760;28;1559;-72
2022/09/11 11:40:17;;;;;;;;;;;;;;;;;;4998606;28;1242;-73
2022/09/11 11:42:54;;;;;;;;;;;;;;;;;;5000008;28;1961;-73
2022/09/11 11:45:25;;;;;;;;;;;;;;;;;;4999381;28;1344;-73
2022/09/11 11:47:51;;;;;;;;;;;;;;;;;;5000480;28;1306;-73
2022/09/11 11:50:39;;;;;;;;;;;;;;;;;;5000848;28;1276;-75
2022/09/11 11:53:05;;;;;;;;;;;;;;;;;;5000131;28;1594;-75
2022/09/11 11:55:50;;;;;;;;;;;;;;;;;;5000165;28;1223;-75
2022/09/11 11:58:36;;;;;;;;;;;;;;;;;;4995792;28;1275;-76
2022/09/11 12:01:05;;;;;;;;;;;;;;;;;;5000706;28;1372;-75
2022/09/11 12:03:37;;;;;;;;;;;;;;;;;;5000477;28;1906;-74
2022/09/11 12:06:03;;;;;;;;;;;;;;;;;;5003770;28;1670;-73
2022/09/11 12:08:29;;;;;;;;;;;;;;;;;;5000459;28;1436;-75
2022/09/11 12:11:06;;;;;;;;;;;;;;;;;;5005339;28;1184;-74
2022/09/11 12:13:33;;;;;;;;;;;;;;;;;;5001923;28;1230;-74
2022/09/11 12:16:09;;;;;;;;;;;;;;;;;;4999267;28;1477;-74
2022/09/11 12:18:36;;;;;;;;;;;;;;;;;;4998592;28;1450;-76
2022/09/11 12:21:20;;;;;;;;;;;;;;;;;;4998230;28;1234;-78
2022/09/11 12:23:48;;;;;;;;;;;;;;;;;;4998109;28;1910;-76
2022/09/11 12:26:16;;;;;;;;;;;;;;;;;;4999264;28;1273;-76
2022/09/11 12:28:41;;;;;;;;;;;;;;;;;;5001221;28;1519;-75
2022/09/11 12:31:10;;;;;;;;;;;;;;;;;;4999983;28;1403;-75
2022/09/11 12:33:42;;;;;;;;;;;;;;;;;;5000321;28;1328;-75
2022/09/11 12:36:09;;;;;;;;;;;;;;;;;;4998786;28;1336;-76
2022/09/11 12:38:44;;;;;;;;;;;;;;;;;;4999148;28;1255;-77
2022/09/11 12:41:12;;;;;;;;;;;;;;;;;;5000778;28;1320;-79
2022/09/11 12:43:38;;;;;;;;;;;;;;;;;;4999779;28;1898;-74
2022/09/11 12:46:04;;;;;;;;;;;;;;;;;;4997735;28;1320;-76
2022/09/11 12:48:33;;;;;;;;;;;;;;;;;;4997203;28;1358;-73
2022/09/11 12:50:59;;;;;;;;;;;;;;;;;;5000303;28;1315;-75
2022/09/11 12:53:30;;;;;;;;;;;;;;;;;;4997038;28;1284;-76
2022/09/11 12:55:57;;;;;;;;;;;;;;;;;;4995918;28;1393;-77
2022/09/11 12:58:25;;;;;;;;;;;;;;;;;;5003340;28;1308;-78
2022/09/11 13:01:00;;;;;;;;;;;;;;;;;;4999193;28;1352;-76
2022/09/11 13:03:26;;;;;;;;;;;;;;;;;;5004451;28;1906;-76
2022/09/11 13:06:02;;;;;;;;;;;;;;;;;;5001190;28;1610;-76
2022/09/11 13:08:39;;;;;;;;;;;;;;;;;;5004819;28;1700;-75
2022/09/11 13:11:24;;;;;;;;;;;;;;;;;;5001079;28;1392;-80
2022/09/11 13:13:49;;;;;;;;;;;;;;;;;;4997876;28;1204;-75
2022/09/11 13:16:21;;;;;;;;;;;;;;;;;;5000506;28;1290;-74
2022/09/11 13:18:47;;;;;;;;;;;;;;;;;;5001675;28;1943;-75
2022/09/11 13:21:13;;;;;;;;;;;;;;;;;;5002175;28;1907;-77
2022/09/11 13:23:41;;;;;;;;;;;;;;;;;;5004752;28;1894;-77
2022/09/11 13:26:06;;;;;;;;;;;;;;;;;;4998478;28;1313;-77
2022/09/11 13:28:36;;;;;;;;;;;;;;;;;;5005009;28;1692;-77
2022/09/11 13:31:03;;;;;;;;;;;;;;;;;;5005052;28;1267;-78
2022/09/11 13:33:29;;;;;;;;;;;;;;;;;;5001422;28;1439;-78
2022/09/11 13:36:01;;;;;;;;;;;;;;;;;;5002547;28;1249;-80
2022/09/11 13:38:29;;;;;;;;;;;;;;;;;;5001511;28;1504;-79
2022/09/11 13:40:56;;;;;;;;;;;;;;;;;;5001759;28;1566;-72
2022/09/11 13:43:24;;;;;;;;;;;;;;;;;;5003432;28;1914;-76
2022/09/11 13:46:07;;;;;;;;;;;;;;;;;;5001691;28;1594;-78
2022/09/11 13:48:33;;;;;;;;;;;;;;;;;;5000908;28;1393;-78
2022/09/11 13:50:58;;;;;;;;;;;;;;;;;;5002520;28;1265;-78
2022/09/11 13:53:23;;;;;;;;;;;;;;;;;;5002302;28;1245;-78
2022/09/11 13:55:48;;;;;;;;;;;;;;;;;;5000349;28;1266;-77
2022/09/11 13:58:22;;;;;;;;;;;;;;;;;;5005985;28;1244;-76
2022/09/11 14:00:51;;;;;;;;;;;;;;;;;;4982171;28;1241;-78
2022/09/11 14:03:17;;;;;;;;;;;;;;;;;;5002769;28;1898;-78
2022/09/11 14:05:50;;;;;;;;;;;;;;;;;;5000472;28;1366;-81
2022/09/11 14:11:25;;;;;;;;;;;;;;;;;;5037501;28;1087;-82
2022/09/11 14:13:54;;;;;;;;;;;;;;;;;;5029054;28;1275;-82
2022/09/11 14:16:26;;;;;;;;;;;;;;;;;;5011920;28;1468;-82
2022/09/11 14:19:12;;;;;;;;;;;;;;;;;;5032122;28;1263;-81
2022/09/11 14:21:39;;;;;;;;;;;;;;;;;;5032559;28;1294;-82
2022/09/11 14:24:23;;;;;;;;;;;;;;;;;;5025844;28;1914;-80
2022/09/11 14:26:48;;;;;;;;;;;;;;;;;;5037381;28;1181;-82
2022/09/11 14:29:27;;;;;;;;;;;;;;;;;;5035577;28;1391;-82
2022/09/11 14:31:53;;;;;;;;;;;;;;;;;;5028754;28;1414;-82
2022/09/11 14:34:19;;;;;;;;;;;;;;;;;;5033104;28;1346;-82
2022/09/11 14:36:50;;;;;;;;;;;;;;;;;;5037540;28;1347;-81
2022/09/11 14:39:21;;;;;;;;;;;;;;;;;;5031311;28;1359;-82
2022/09/11 14:41:46;;;;;;;;;;;;;;;;;;5033981;28;1457;-81
2022/09/11 14:44:16;;;;;;;;;;;;;;;;;;5023050;28;1950;-81
2022/09/11 14:46:42;;;;;;;;;;;;;;;;;;5034927;28;1402;-81
2022/09/11 14:49:08;;;;;;;;;;;;;;;;;;5029690;28;1365;-81
2022/09/11 14:51:34;;;;;;;;;;;;;;;;;;5034252;28;1489;-81
2022/09/11 14:53:59;;;;;;;;;;;;;;;;;;5036502;28;1359;-81
2022/09/11 14:56:25;;;;;;;;;;;;;;;;;;5036756;28;1471;-82
2022/09/11 14:58:52;;;;;;;;;;;;;;;;;;5034156;28;1409;-82
2022/09/11 15:01:17;;;;;;;;;;;;;;;;;;5032434;28;1720;-82
2022/09/11 15:03:42;;;;;;;;;;;;;;;;;;5035205;28;1957;-82
2022/09/11 15:06:09;;;;;;;;;;;;;;;;;;5035624;28;1377;-80
2022/09/11 15:08:34;;;;;;;;;;;;;;;;;;5031296;28;1455;-85
2022/09/11 15:10:59;;;;;;;;;;;;;;;;;;5036051;28;1326;-81
2022/09/11 15:13:26;;;;;;;;;;;;;;;;;;5037139;28;1311;-81
2022/09/11 15:15:51;;;;;;;;;;;;;;;;;;5036247;28;1571;-81
2022/09/11 15:18:16;;;;;;;;;;;;;;;;;;5033439;28;1364;-81
2022/09/11 15:20:41;;;;;;;;;;;;;;;;;;5028830;28;1434;-81
2022/09/11 15:23:07;;;;;;;;;;;;;;;;;;5031407;28;1961;-81
2022/09/11 15:25:32;;;;;;;;;;;;;;;;;;5030574;28;1367;-82
2022/09/11 15:27:57;;;;;;;;;;;;;;;;;;5034520;28;1300;-80
2022/09/11 15:30:24;;;;;;;;;;;;;;;;;;5034446;28;1388;-82
2022/09/11 15:32:49;;;;;;;;;;;;;;;;;;5033987;28;1339;-82
2022/09/11 15:35:17;;;;;;;;;;;;;;;;;;5032758;28;1634;-83
2022/09/11 15:37:44;;;;;;;;;;;;;;;;;;5030982;28;1328;-82
2022/09/11 15:40:10;;;;;;;;;;;;;;;;;;5035554;28;1346;-82
2022/09/11 15:42:35;;;;;;;;;;;;;;;;;;5030390;28;1898;-82
2022/09/11 15:45:00;;;;;;;;;;;;;;;;;;5036118;28;1393;-82
2022/09/11 15:47:28;;;;;;;;;;;;;;;;;;5032316;28;1423;-80
2022/09/11 15:49:53;;;;;;;;;;;;;;;;;;5037652;28;1477;-80
2022/09/11 15:52:18;;;;;;;;;;;;;;;;;;5038173;28;1459;-80
2022/09/11 15:54:44;;;;;;;;;;;;;;;;;;5031606;28;1579;-79
2022/09/11 15:57:10;;;;;;;;;;;;;;;;;;5036171;28;1386;-79
2022/09/11 15:59:35;;;;;;;;;;;;;;;;;;5038222;28;1414;-79
2022/09/11 16:02:00;;;;;;;;;;;;;;;;;;5038198;28;1326;-78
2022/09/11 16:04:27;;;;;;;;;;;;;;;;;;5038159;28;1902;-79
2022/09/11 16:06:53;;;;;;;;;;;;;;;;;;5036214;28;1377;-79
2022/09/11 16:09:19;;;;;;;;;;;;;;;;;;5036012;28;1656;-79
2022/09/11 16:11:46;;;;;;;;;;;;;;;;;;5035559;28;1250;-79
2022/09/11 16:14:32;;;;;;;;;;;;;;;;;;5038559;28;1358;-78
2022/09/11 16:16:58;;;;;;;;;;;;;;;;;;5038299;28;1366;-78
2022/09/11 16:19:27;;;;;;;;;;;;;;;;;;5038186;28;1303;-78
2022/09/11 16:21:55;;;;;;;;;;;;;;;;;;5038575;28;1343;-79
2022/09/11 16:24:20;;;;;;;;;;;;;;;;;;5036117;28;1961;-78
2022/09/11 16:26:45;;;;;;;;;;;;;;;;;;5037070;28;1387;-79
2022/09/11 16:29:11;;;;;;;;;;;;;;;;;;5037356;28;1339;-78
2022/09/11 16:31:37;;;;;;;;;;;;;;;;;;5037972;28;1304;-79
2022/09/11 16:34:03;;;;;;;;;;;;;;;;;;5040384;28;1232;-78
2022/09/11 16:36:29;;;;;;;;;;;;;;;;;;5040359;28;1737;-79
2022/09/11 16:38:55;;;;;;;;;;;;;;;;;;5040310;28;1500;-81
2022/09/11 16:41:20;;;;;;;;;;;;;;;;;;5041705;28;1383;-81
2022/09/11 16:43:47;;;;;;;;;;;;;;;;;;5039984;28;1893;-78
2022/09/11 16:46:14;;;;;;;;;;;;;;;;;;5037074;28;1337;-77
2022/09/11 16:48:39;;;;;;;;;;;;;;;;;;5040461;28;1465;-77
2022/09/11 16:51:05;;;;;;;;;;;;;;;;;;5037557;28;1358;-77
2022/09/11 16:53:31;;;;;;;;;;;;;;;;;;5039584;28;1322;-79
2022/09/11 16:55:57;;;;;;;;;;;;;;;;;;5040319;28;1300;-79
2022/09/11 16:58:22;;;;;;;;;;;;;;;;;;5032235;28;1371;-79
2022/09/11 17:00:48;;;;;;;;;;;;;;;;;;5038569;28;1410;-80
2022/09/11 17:03:13;;;;;;;;;;;;;;;;;;5022058;28;1964;-79
2022/09/11 17:05:53;;;;;;;;;;;;;;;;;;5038868;28;1464;-79
2022/09/11 17:08:20;;;;;;;;;;;;;;;;;;5036143;28;1481;-79
2022/09/11 17:10:45;;;;;;;;;;;;;;;;;;5039361;28;1287;-81
2022/09/11 17:13:11;;;;;;;;;;;;;;;;;;5037074;28;1445;-78
2022/09/11 17:15:36;;;;;;;;;;;;;;;;;;5037208;28;1675;-78